sensor_id;sensor_type;location;lat;lon;timestamp;pressure;altitude;pressure_sealevel;temperature;humidity
10958;BME280;5531;42.570;23.676;2023-03-20T00:02:26;92284.28;;;5.74;87.70
10958;BME280;5531;42.570;23.676;2023-03-20T00:04:56;92281.97;;;5.55;88.65
10958;BME280;5531;42.570;23.676;2023-03-20T00:07:25;92284.09;;;5.43;88.51
10958;BME280;5531;42.570;23.676;2023-03-20T00:09:54;92271.72;;;5.45;88.74
10958;BME280;5531;42.570;23.676;2023-03-20T00:12:23;92277.06;;;5.35;89.12
10958;BME280;5531;42.570;23.676;2023-03-20T00:14:56;92264.88;;;5.27;89.75
10958;BME280;5531;42.570;23.676;2023-03-20T00:17:25;92270.84;;;5.20;90.25
10958;BME280;5531;42.570;23.676;2023-03-20T00:19:54;92267.41;;;5.11;90.78
10958;BME280;5531;42.570;23.676;2023-03-20T00:22:23;92269.69;;;5.06;91.39
10958;BME280;5531;42.570;23.676;2023-03-20T00:24:54;92264.31;;;4.99;91.42
10958;BME280;5531;42.570;23.676;2023-03-20T00:27:23;92253.72;;;4.92;91.89
10958;BME280;5531;42.570;23.676;2023-03-20T00:29:52;92257.94;;;4.93;92.80
10958;BME280;5531;42.570;23.676;2023-03-20T00:32:23;92255.34;;;4.93;93.70
10958;BME280;5531;42.570;23.676;2023-03-20T00:34:52;92258.63;;;4.95;94.12
10958;BME280;5531;42.570;23.676;2023-03-20T00:37:21;92250.50;;;4.99;93.74
10958;BME280;5531;42.570;23.676;2023-03-20T00:39:51;92245.81;;;5.02;94.01
10958;BME280;5531;42.570;23.676;2023-03-20T00:42:20;92258.16;;;5.08;93.93
10958;BME280;5531;42.570;23.676;2023-03-20T00:44:51;92242.22;;;5.03;94.10
10958;BME280;5531;42.570;23.676;2023-03-20T00:47:27;92248.59;;;5.09;93.36
10958;BME280;5531;42.570;23.676;2023-03-20T00:49:56;92240.47;;;5.04;93.83
10958;BME280;5531;42.570;23.676;2023-03-20T00:52:25;92235.75;;;5.07;93.97
10958;BME280;5531;42.570;23.676;2023-03-20T00:54:54;92227.66;;;5.02;94.24
10958;BME280;5531;42.570;23.676;2023-03-20T00:57:25;92224.06;;;5.03;93.68
10958;BME280;5531;42.570;23.676;2023-03-20T00:59:58;92225.53;;;5.06;93.81
10958;BME280;5531;42.570;23.676;2023-03-20T01:02:32;92234.28;;;5.05;93.16
10958;BME280;5531;42.570;23.676;2023-03-20T01:05:02;92222.59;;;5.01;93.47
10958;BME280;5531;42.570;23.676;2023-03-20T01:07:31;92221.63;;;5.02;93.14
10958;BME280;5531;42.570;23.676;2023-03-20T01:10:00;92216.75;;;4.99;93.14
10958;BME280;5531;42.570;23.676;2023-03-20T01:12:29;92225.50;;;4.98;93.57
10958;BME280;5531;42.570;23.676;2023-03-20T01:14:58;92212.69;;;4.96;93.59
10958;BME280;5531;42.570;23.676;2023-03-20T01:17:28;92220.94;;;4.91;93.56
10958;BME280;5531;42.570;23.676;2023-03-20T01:19:59;92216.06;;;4.88;93.46
10958;BME280;5531;42.570;23.676;2023-03-20T01:22:28;92215.41;;;4.86;94.02
10958;BME280;5531;42.570;23.676;2023-03-20T01:24:57;92209.59;;;4.84;94.21
10958;BME280;5531;42.570;23.676;2023-03-20T01:27:27;92216.88;;;4.89;93.70
10958;BME280;5531;42.570;23.676;2023-03-20T01:29:56;92215.91;;;4.90;93.75
10958;BME280;5531;42.570;23.676;2023-03-20T01:32:25;92219.00;;;4.93;93.53
10958;BME280;5531;42.570;23.676;2023-03-20T01:34:54;92214.47;;;4.95;93.84
10958;BME280;5531;42.570;23.676;2023-03-20T01:37:27;92210.25;;;4.94;93.93
10958;BME280;5531;42.570;23.676;2023-03-20T01:39:56;92213.00;;;4.93;94.06
10958;BME280;5531;42.570;23.676;2023-03-20T01:42:25;92215.44;;;4.94;94.17
10958;BME280;5531;42.570;23.676;2023-03-20T01:44:55;92214.13;;;4.99;94.41
10958;BME280;5531;42.570;23.676;2023-03-20T01:47:24;92216.41;;;5.02;94.27
10958;BME280;5531;42.570;23.676;2023-03-20T01:50:18;92220.31;;;4.98;93.40
10958;BME280;5531;42.570;23.676;2023-03-20T01:52:55;92213.19;;;5.00;92.59
10958;BME280;5531;42.570;23.676;2023-03-20T01:55:27;92218.66;;;4.88;92.74
10958;BME280;5531;42.570;23.676;2023-03-20T01:57:59;92208.19;;;4.64;93.89
10958;BME280;5531;42.570;23.676;2023-03-20T02:00:29;92218.50;;;4.47;94.86
10958;BME280;5531;42.570;23.676;2023-03-20T02:02:58;92215.72;;;4.40;95.91
10958;BME280;5531;42.570;23.676;2023-03-20T02:05:27;92212.47;;;4.38;95.66
10958;BME280;5531;42.570;23.676;2023-03-20T02:08:12;92219.13;;;4.41;95.62
10958;BME280;5531;42.570;23.676;2023-03-20T02:10:45;92214.56;;;4.43;95.68
10958;BME280;5531;42.570;23.676;2023-03-20T02:13:15;92215.56;;;4.42;95.67
10958;BME280;5531;42.570;23.676;2023-03-20T02:16:06;92215.09;;;4.47;95.80
10958;BME280;5531;42.570;23.676;2023-03-20T02:18:36;92220.75;;;4.42;95.77
10958;BME280;5531;42.570;23.676;2023-03-20T02:21:29;92212.50;;;4.47;95.64
10958;BME280;5531;42.570;23.676;2023-03-20T02:27:24;92207.63;;;4.44;95.45
10958;BME280;5531;42.570;23.676;2023-03-20T02:30:17;92209.09;;;4.46;95.40
10958;BME280;5531;42.570;23.676;2023-03-20T02:39:17;92202.34;;;4.62;93.98
10958;BME280;5531;42.570;23.676;2023-03-20T02:41:53;92193.44;;;4.64;93.88
10958;BME280;5531;42.570;23.676;2023-03-20T02:44:33;92194.91;;;4.67;93.92
10958;BME280;5531;42.570;23.676;2023-03-20T02:47:08;92202.72;;;4.75;93.20
10958;BME280;5531;42.570;23.676;2023-03-20T02:49:52;92207.13;;;4.74;92.79
10958;BME280;5531;42.570;23.676;2023-03-20T02:52:30;92216.16;;;4.70;92.46
10958;BME280;5531;42.570;23.676;2023-03-20T02:55:09;92201.25;;;4.72;92.43
10958;BME280;5531;42.570;23.676;2023-03-20T02:57:49;92207.91;;;4.75;91.77
10958;BME280;5531;42.570;23.676;2023-03-20T03:00:25;92212.50;;;4.81;92.18
10958;BME280;5531;42.570;23.676;2023-03-20T03:03:03;92209.88;;;4.81;91.45
10958;BME280;5531;42.570;23.676;2023-03-20T03:05:38;92209.22;;;4.79;91.94
10958;BME280;5531;42.570;23.676;2023-03-20T03:08:11;92207.75;;;4.76;92.39
10958;BME280;5531;42.570;23.676;2023-03-20T03:10:48;92201.44;;;4.79;91.87
10958;BME280;5531;42.570;23.676;2023-03-20T03:13:24;92197.06;;;4.80;92.77
10958;BME280;5531;42.570;23.676;2023-03-20T03:15:58;92210.09;;;4.96;92.26
10958;BME280;5531;42.570;23.676;2023-03-20T03:18:31;92196.34;;;5.04;91.73
10958;BME280;5531;42.570;23.676;2023-03-20T03:21:05;92192.06;;;4.94;91.51
10958;BME280;5531;42.570;23.676;2023-03-20T03:23:40;92194.00;;;4.84;92.44
10958;BME280;5531;42.570;23.676;2023-03-20T03:26:18;92190.09;;;4.88;92.51
10958;BME280;5531;42.570;23.676;2023-03-20T03:28:50;92191.44;;;4.92;92.23
10958;BME280;5531;42.570;23.676;2023-03-20T03:31:22;92197.28;;;4.94;91.96
10958;BME280;5531;42.570;23.676;2023-03-20T03:33:54;92194.19;;;4.99;91.64
10958;BME280;5531;42.570;23.676;2023-03-20T03:36:32;92189.03;;;5.07;91.59
10958;BME280;5531;42.570;23.676;2023-03-20T03:39:10;92197.31;;;5.11;91.60
10958;BME280;5531;42.570;23.676;2023-03-20T03:41:46;92192.59;;;5.06;91.52
10958;BME280;5531;42.570;23.676;2023-03-20T03:44:22;92193.41;;;5.07;91.78
10958;BME280;5531;42.570;23.676;2023-03-20T03:46:55;92191.63;;;5.07;92.27
10958;BME280;5531;42.570;23.676;2023-03-20T03:49:29;92187.41;;;5.06;92.50
10958;BME280;5531;42.570;23.676;2023-03-20T03:52:02;92184.28;;;4.94;92.70
10958;BME280;5531;42.570;23.676;2023-03-20T03:54:35;92182.66;;;5.02;92.64
10958;BME280;5531;42.570;23.676;2023-03-20T03:57:09;92184.78;;;5.06;92.47
10958;BME280;5531;42.570;23.676;2023-03-20T03:59:43;92180.25;;;5.08;92.25
10958;BME280;5531;42.570;23.676;2023-03-20T04:02:15;92184.00;;;5.06;91.88
10958;BME280;5531;42.570;23.676;2023-03-20T04:04:47;92190.84;;;5.15;91.75
10958;BME280;5531;42.570;23.676;2023-03-20T04:07:17;92184.19;;;5.21;92.01
10958;BME280;5531;42.570;23.676;2023-03-20T04:09:46;92187.56;;;5.05;91.67
10958;BME280;5531;42.570;23.676;2023-03-20T04:12:33;92194.69;;;5.03;91.66
10958;BME280;5531;42.570;23.676;2023-03-20T04:15:04;92191.78;;;5.06;91.83
10958;BME280;5531;42.570;23.676;2023-03-20T04:17:33;92182.69;;;5.10;91.91
10958;BME280;5531;42.570;23.676;2023-03-20T04:20:04;92196.19;;;5.13;91.69
10958;BME280;5531;42.570;23.676;2023-03-20T04:22:33;92195.31;;;4.96;92.62
10958;BME280;5531;42.570;23.676;2023-03-20T04:25:02;92195.16;;;4.98;92.37
10958;BME280;5531;42.570;23.676;2023-03-20T04:27:34;92200.00;;;4.85;92.45
10958;BME280;5531;42.570;23.676;2023-03-20T04:30:04;92192.84;;;4.78;92.37
10958;BME280;5531;42.570;23.676;2023-03-20T04:32:33;92192.06;;;4.86;92.05
10958;BME280;5531;42.570;23.676;2023-03-20T04:35:03;92191.75;;;4.89;91.84
10958;BME280;5531;42.570;23.676;2023-03-20T04:37:32;92186.25;;;4.92;91.93
10958;BME280;5531;42.570;23.676;2023-03-20T04:40:01;92187.38;;;4.98;91.62
10958;BME280;5531;42.570;23.676;2023-03-20T04:42:30;92186.25;;;4.92;92.06
10958;BME280;5531;42.570;23.676;2023-03-20T04:45:02;92183.09;;;4.81;93.25
10958;BME280;5531;42.570;23.676;2023-03-20T04:47:32;92182.56;;;4.61;94.26
10958;BME280;5531;42.570;23.676;2023-03-20T04:50:01;92179.09;;;4.44;95.77
10958;BME280;5531;42.570;23.676;2023-03-20T04:52:30;92187.34;;;4.39;95.96
10958;BME280;5531;42.570;23.676;2023-03-20T04:54:59;92183.81;;;4.48;95.86
10958;BME280;5531;42.570;23.676;2023-03-20T04:57:28;92186.25;;;4.50;96.45
10958;BME280;5531;42.570;23.676;2023-03-20T04:59:57;92184.19;;;4.62;95.37
10958;BME280;5531;42.570;23.676;2023-03-20T05:02:29;92183.75;;;4.74;95.14
10958;BME280;5531;42.570;23.676;2023-03-20T05:04:58;92175.84;;;4.84;94.43
10958;BME280;5531;42.570;23.676;2023-03-20T05:07:27;92188.19;;;4.99;93.94
10958;BME280;5531;42.570;23.676;2023-03-20T05:09:56;92184.34;;;5.19;92.84
10958;BME280;5531;42.570;23.676;2023-03-20T05:12:25;92188.25;;;5.31;92.52
10958;BME280;5531;42.570;23.676;2023-03-20T05:14:55;92184.53;;;5.50;91.86
10958;BME280;5531;42.570;23.676;2023-03-20T05:17:24;92184.53;;;5.67;89.75
10958;BME280;5531;42.570;23.676;2023-03-20T05:19:55;92183.88;;;5.81;89.17
10958;BME280;5531;42.570;23.676;2023-03-20T05:22:24;92187.16;;;6.00;87.49
10958;BME280;5531;42.570;23.676;2023-03-20T05:24:53;92185.50;;;6.15;86.05
10958;BME280;5531;42.570;23.676;2023-03-20T05:27:23;92203.47;;;6.41;84.05
10958;BME280;5531;42.570;23.676;2023-03-20T05:29:52;92208.47;;;6.59;80.09
10958;BME280;5531;42.570;23.676;2023-03-20T05:32:21;92206.97;;;6.73;77.35
10958;BME280;5531;42.570;23.676;2023-03-20T05:34:50;92204.97;;;6.84;77.08
10958;BME280;5531;42.570;23.676;2023-03-20T05:37:22;92210.97;;;6.84;79.45
10958;BME280;5531;42.570;23.676;2023-03-20T05:39:51;92210.66;;;6.79;79.24
10958;BME280;5531;42.570;23.676;2023-03-20T05:42:20;92227.31;;;6.70;79.56
10958;BME280;5531;42.570;23.676;2023-03-20T05:44:49;92221.63;;;6.66;78.56
10958;BME280;5531;42.570;23.676;2023-03-20T05:47:18;92226.50;;;6.69;77.14
10958;BME280;5531;42.570;23.676;2023-03-20T05:49:47;92225.06;;;6.67;75.45
10958;BME280;5531;42.570;23.676;2023-03-20T05:52:16;92227.34;;;6.53;74.38
10958;BME280;5531;42.570;23.676;2023-03-20T05:54:48;92222.81;;;6.55;75.23
10958;BME280;5531;42.570;23.676;2023-03-20T05:57:17;92223.81;;;6.46;75.95
10958;BME280;5531;42.570;23.676;2023-03-20T05:59:47;92224.63;;;6.38;76.55
10958;BME280;5531;42.570;23.676;2023-03-20T06:02:16;92227.09;;;6.23;76.37
10958;BME280;5531;42.570;23.676;2023-03-20T06:04:45;92220.06;;;6.32;77.87
10958;BME280;5531;42.570;23.676;2023-03-20T06:07:14;92221.38;;;6.45;77.82
10958;BME280;5531;42.570;23.676;2023-03-20T06:09:43;92228.00;;;6.55;76.83
10958;BME280;5531;42.570;23.676;2023-03-20T06:12:15;92237.91;;;6.68;76.18
10958;BME280;5531;42.570;23.676;2023-03-20T06:14:44;92230.06;;;6.76;76.06
10958;BME280;5531;42.570;23.676;2023-03-20T06:17:13;92231.78;;;6.92;76.71
10958;BME280;5531;42.570;23.676;2023-03-20T06:19:42;92232.91;;;6.98;76.61
10958;BME280;5531;42.570;23.676;2023-03-20T06:22:11;92241.06;;;6.95;77.29
10958;BME280;5531;42.570;23.676;2023-03-20T06:24:40;92236.81;;;6.94;77.86
10958;BME280;5531;42.570;23.676;2023-03-20T06:27:09;92238.13;;;6.98;78.23
10958;BME280;5531;42.570;23.676;2023-03-20T06:29:41;92231.75;;;7.01;79.15
10958;BME280;5531;42.570;23.676;2023-03-20T06:32:11;92234.00;;;7.04;78.69
10958;BME280;5531;42.570;23.676;2023-03-20T06:34:42;92232.94;;;6.90;79.09
10958;BME280;5531;42.570;23.676;2023-03-20T06:37:10;92240.78;;;6.82;80.60
10958;BME280;5531;42.570;23.676;2023-03-20T06:39:40;92246.03;;;6.73;81.45
10958;BME280;5531;42.570;23.676;2023-03-20T06:42:09;92245.03;;;6.66;81.91
10958;BME280;5531;42.570;23.676;2023-03-20T06:44:38;92243.13;;;6.68;82.17
10958;BME280;5531;42.570;23.676;2023-03-20T06:47:09;92244.72;;;6.69;82.08
10958;BME280;5531;42.570;23.676;2023-03-20T06:49:38;92234.59;;;6.74;81.59
10958;BME280;5531;42.570;23.676;2023-03-20T06:52:13;92238.00;;;6.83;82.16
10958;BME280;5531;42.570;23.676;2023-03-20T06:54:44;92241.38;;;6.92;82.30
10958;BME280;5531;42.570;23.676;2023-03-20T06:57:13;92242.03;;;6.94;80.72
10958;BME280;5531;42.570;23.676;2023-03-20T06:59:43;92239.56;;;7.01;80.12
10958;BME280;5531;42.570;23.676;2023-03-20T07:02:15;92241.44;;;7.15;78.73
10958;BME280;5531;42.570;23.676;2023-03-20T07:04:44;92236.16;;;7.31;78.22
10958;BME280;5531;42.570;23.676;2023-03-20T07:07:13;92234.28;;;7.48;78.98
10958;BME280;5531;42.570;23.676;2023-03-20T07:09:42;92235.78;;;7.66;76.92
10958;BME280;5531;42.570;23.676;2023-03-20T07:12:12;92237.63;;;7.80;75.38
10958;BME280;5531;42.570;23.676;2023-03-20T07:14:47;92242.00;;;7.88;74.41
10958;BME280;5531;42.570;23.676;2023-03-20T07:17:19;92227.72;;;7.99;74.57
10958;BME280;5531;42.570;23.676;2023-03-20T07:19:48;92234.97;;;8.12;72.59
10958;BME280;5531;42.570;23.676;2023-03-20T07:22:21;92235.06;;;8.18;71.94
10958;BME280;5531;42.570;23.676;2023-03-20T07:24:51;92235.19;;;8.25;72.51
10958;BME280;5531;42.570;23.676;2023-03-20T07:27:20;92239.69;;;8.31;71.86
10958;BME280;5531;42.570;23.676;2023-03-20T07:29:50;92228.88;;;8.34;70.48
10958;BME280;5531;42.570;23.676;2023-03-20T07:32:21;92238.78;;;8.39;71.15
10958;BME280;5531;42.570;23.676;2023-03-20T07:34:50;92234.53;;;8.46;70.55
10958;BME280;5531;42.570;23.676;2023-03-20T07:37:19;92231.38;;;8.66;70.38
10958;BME280;5531;42.570;23.676;2023-03-20T07:39:48;92244.53;;;8.87;70.58
10958;BME280;5531;42.570;23.676;2023-03-20T07:42:18;92236.41;;;9.12;69.22
10958;BME280;5531;42.570;23.676;2023-03-20T07:44:47;92234.50;;;9.21;69.22
10958;BME280;5531;42.570;23.676;2023-03-20T07:47:16;92234.78;;;9.26;67.95
10958;BME280;5531;42.570;23.676;2023-03-20T07:49:48;92240.72;;;9.34;68.37
10958;BME280;5531;42.570;23.676;2023-03-20T07:52:17;92238.41;;;9.46;67.25
10958;BME280;5531;42.570;23.676;2023-03-20T07:54:46;92235.03;;;9.67;67.30
10958;BME280;5531;42.570;23.676;2023-03-20T07:57:15;92233.84;;;9.91;66.42
10958;BME280;5531;42.570;23.676;2023-03-20T07:59:44;92233.28;;;10.18;65.95
10958;BME280;5531;42.570;23.676;2023-03-20T08:02:13;92232.72;;;10.22;64.94
10958;BME280;5531;42.570;23.676;2023-03-20T08:04:43;92246.63;;;10.23;64.93
10958;BME280;5531;42.570;23.676;2023-03-20T08:07:15;92238.47;;;10.33;65.21
10958;BME280;5531;42.570;23.676;2023-03-20T08:09:45;92236.09;;;10.38;63.64
10958;BME280;5531;42.570;23.676;2023-03-20T08:12:14;92235.75;;;10.48;62.08
10958;BME280;5531;42.570;23.676;2023-03-20T08:14:43;92238.22;;;10.56;61.20
10958;BME280;5531;42.570;23.676;2023-03-20T08:17:12;92237.09;;;10.65;61.31
10958;BME280;5531;42.570;23.676;2023-03-20T08:19:41;92246.06;;;10.77;61.11
10958;BME280;5531;42.570;23.676;2023-03-20T08:22:10;92245.53;;;10.89;62.30
10958;BME280;5531;42.570;23.676;2023-03-20T08:24:42;92254.59;;;10.93;59.17
10958;BME280;5531;42.570;23.676;2023-03-20T08:27:11;92260.41;;;10.88;59.40
10958;BME280;5531;42.570;23.676;2023-03-20T08:29:40;92256.59;;;10.84;59.69
10958;BME280;5531;42.570;23.676;2023-03-20T08:32:09;92263.00;;;10.81;61.21
10958;BME280;5531;42.570;23.676;2023-03-20T08:34:38;92260.13;;;10.70;59.59
10958;BME280;5531;42.570;23.676;2023-03-20T08:37:07;92251.44;;;10.69;58.54
10958;BME280;5531;42.570;23.676;2023-03-20T08:39:37;92266.16;;;10.70;61.95
10958;BME280;5531;42.570;23.676;2023-03-20T08:42:09;92263.56;;;10.77;61.44
10958;BME280;5531;42.570;23.676;2023-03-20T08:44:38;92257.75;;;10.81;60.05
10958;BME280;5531;42.570;23.676;2023-03-20T08:47:07;92260.41;;;10.88;61.02
10958;BME280;5531;42.570;23.676;2023-03-20T08:49:37;92261.25;;;10.89;60.50
10958;BME280;5531;42.570;23.676;2023-03-20T08:52:06;92270.38;;;10.99;60.98
10958;BME280;5531;42.570;23.676;2023-03-20T08:54:35;92272.66;;;11.09;59.17
10958;BME280;5531;42.570;23.676;2023-03-20T08:57:04;92259.78;;;11.21;57.90
10958;BME280;5531;42.570;23.676;2023-03-20T08:59:36;92260.28;;;11.38;56.60
10958;BME280;5531;42.570;23.676;2023-03-20T09:02:05;92260.56;;;11.56;59.33
10958;BME280;5531;42.570;23.676;2023-03-20T09:04:35;92259.78;;;11.63;58.79
10958;BME280;5531;42.570;23.676;2023-03-20T09:07:05;92261.16;;;11.59;55.38
10958;BME280;5531;42.570;23.676;2023-03-20T09:09:34;92257.56;;;11.66;56.01
10958;BME280;5531;42.570;23.676;2023-03-20T09:12:03;92259.03;;;11.76;55.26
10958;BME280;5531;42.570;23.676;2023-03-20T09:14:35;92257.59;;;11.73;55.73
10958;BME280;5531;42.570;23.676;2023-03-20T09:17:04;92260.88;;;11.82;55.67
10958;BME280;5531;42.570;23.676;2023-03-20T09:19:34;92260.66;;;11.83;54.63
10958;BME280;5531;42.570;23.676;2023-03-20T09:22:04;92246.91;;;11.88;54.69
10958;BME280;5531;42.570;23.676;2023-03-20T09:24:34;92250.03;;;12.05;54.70
10958;BME280;5531;42.570;23.676;2023-03-20T09:27:03;92239.13;;;12.15;54.67
10958;BME280;5531;42.570;23.676;2023-03-20T09:29:32;92234.69;;;12.35;55.00
10958;BME280;5531;42.570;23.676;2023-03-20T09:32:03;92231.47;;;12.46;53.05
10958;BME280;5531;42.570;23.676;2023-03-20T09:34:33;92235.31;;;12.51;51.86
10958;BME280;5531;42.570;23.676;2023-03-20T09:37:02;92234.09;;;12.67;52.05
10958;BME280;5531;42.570;23.676;2023-03-20T09:39:31;92235.69;;;12.74;51.62
10958;BME280;5531;42.570;23.676;2023-03-20T09:42:07;92228.03;;;12.86;53.32
10958;BME280;5531;42.570;23.676;2023-03-20T09:44:50;92224.97;;;12.89;51.02
10958;BME280;5531;42.570;23.676;2023-03-20T09:47:30;92221.94;;;12.99;49.60
10958;BME280;5531;42.570;23.676;2023-03-20T09:50:18;92229.78;;;13.12;49.95
10958;BME280;5531;42.570;23.676;2023-03-20T09:52:57;92216.19;;;13.22;50.70
10958;BME280;5531;42.570;23.676;2023-03-20T09:55:33;92216.59;;;13.32;49.50
10958;BME280;5531;42.570;23.676;2023-03-20T09:58:06;92212.72;;;13.42;47.81
10958;BME280;5531;42.570;23.676;2023-03-20T10:00:41;92212.91;;;13.47;47.54
10958;BME280;5531;42.570;23.676;2023-03-20T10:03:17;92203.50;;;13.64;49.29
10958;BME280;5531;42.570;23.676;2023-03-20T10:05:49;92204.41;;;13.83;46.22
10958;BME280;5531;42.570;23.676;2023-03-20T10:08:22;92203.19;;;13.86;47.86
10958;BME280;5531;42.570;23.676;2023-03-20T10:11:09;92199.09;;;13.90;46.81
10958;BME280;5531;42.570;23.676;2023-03-20T10:13:52;92195.78;;;14.01;46.99
10958;BME280;5531;42.570;23.676;2023-03-20T10:16:38;92191.63;;;14.19;43.78
10958;BME280;5531;42.570;23.676;2023-03-20T10:19:19;92200.47;;;14.31;45.32
10958;BME280;5531;42.570;23.676;2023-03-20T10:21:56;92187.97;;;14.45;44.51
10958;BME280;5531;42.570;23.676;2023-03-20T10:24:28;92183.22;;;14.60;44.62
10958;BME280;5531;42.570;23.676;2023-03-20T10:27:03;92185.72;;;14.74;43.60
10958;BME280;5531;42.570;23.676;2023-03-20T10:29:41;92191.94;;;14.79;41.43
10958;BME280;5531;42.570;23.676;2023-03-20T10:32:17;92179.38;;;14.81;40.24
10958;BME280;5531;42.570;23.676;2023-03-20T10:35:08;92176.28;;;14.84;39.85
10958;BME280;5531;42.570;23.676;2023-03-20T10:37:48;92168.81;;;15.00;39.60
10958;BME280;5531;42.570;23.676;2023-03-20T10:40:31;92167.06;;;15.12;37.78
10958;BME280;5531;42.570;23.676;2023-03-20T10:43:04;92163.91;;;15.22;39.73
10958;BME280;5531;42.570;23.676;2023-03-20T10:45:40;92159.84;;;15.38;38.40
10958;BME280;5531;42.570;23.676;2023-03-20T10:48:19;92156.81;;;15.53;37.76
10958;BME280;5531;42.570;23.676;2023-03-20T10:50:54;92163.19;;;15.64;38.60
10958;BME280;5531;42.570;23.676;2023-03-20T10:53:29;92155.19;;;15.70;38.23
10958;BME280;5531;42.570;23.676;2023-03-20T10:56:02;92155.75;;;15.72;37.32
10958;BME280;5531;42.570;23.676;2023-03-20T10:58:36;92148.66;;;15.73;38.15
10958;BME280;5531;42.570;23.676;2023-03-20T11:01:06;92155.53;;;15.74;40.69
10958;BME280;5531;42.570;23.676;2023-03-20T11:03:36;92144.34;;;15.79;37.42
10958;BME280;5531;42.570;23.676;2023-03-20T11:06:16;92147.00;;;15.90;36.88
10958;BME280;5531;42.570;23.676;2023-03-20T11:08:49;92145.88;;;15.98;36.07
10958;BME280;5531;42.570;23.676;2023-03-20T11:11:22;92131.56;;;16.06;36.97
10958;BME280;5531;42.570;23.676;2023-03-20T11:13:53;92136.84;;;16.06;36.32
10958;BME280;5531;42.570;23.676;2023-03-20T11:16:28;92123.28;;;16.14;37.80
10958;BME280;5531;42.570;23.676;2023-03-20T11:19:04;92131.81;;;16.28;36.68
10958;BME280;5531;42.570;23.676;2023-03-20T11:21:44;92131.81;;;16.28;37.92
10958;BME280;5531;42.570;23.676;2023-03-20T11:24:29;92130.09;;;16.22;36.14
10958;BME280;5531;42.570;23.676;2023-03-20T11:27:08;92123.88;;;16.28;38.60
10958;BME280;5531;42.570;23.676;2023-03-20T11:29:39;92118.63;;;16.40;36.65
10958;BME280;5531;42.570;23.676;2023-03-20T11:32:20;92116.66;;;16.47;35.97
10958;BME280;5531;42.570;23.676;2023-03-20T11:34:50;92112.75;;;16.61;37.00
10958;BME280;5531;42.570;23.676;2023-03-20T11:37:27;92118.50;;;16.58;35.82
10958;BME280;5531;42.570;23.676;2023-03-20T11:39:58;92108.03;;;16.63;36.40
10958;BME280;5531;42.570;23.676;2023-03-20T11:42:29;92101.34;;;16.73;35.89
10958;BME280;5531;42.570;23.676;2023-03-20T11:45:00;92100.22;;;16.92;37.06
10958;BME280;5531;42.570;23.676;2023-03-20T11:47:32;92094.28;;;17.14;36.80
10958;BME280;5531;42.570;23.676;2023-03-20T11:50:04;92091.13;;;17.29;35.27
10958;BME280;5531;42.570;23.676;2023-03-20T11:52:38;92086.16;;;17.32;35.78
10958;BME280;5531;42.570;23.676;2023-03-20T11:55:23;92087.03;;;17.50;35.28
10958;BME280;5531;42.570;23.676;2023-03-20T11:57:58;92096.53;;;17.63;35.74
10958;BME280;5531;42.570;23.676;2023-03-20T12:00:29;92088.75;;;17.73;32.54
10958;BME280;5531;42.570;23.676;2023-03-20T12:05:59;92088.78;;;17.44;34.88
10958;BME280;5531;42.570;23.676;2023-03-20T12:08:31;92083.16;;;17.40;34.55
10958;BME280;5531;42.570;23.676;2023-03-20T12:11:18;92081.41;;;17.46;34.35
10958;BME280;5531;42.570;23.676;2023-03-20T12:13:50;92079.91;;;17.50;33.69
10958;BME280;5531;42.570;23.676;2023-03-20T12:16:21;92076.63;;;17.60;33.24
10958;BME280;5531;42.570;23.676;2023-03-20T12:18:54;92076.97;;;17.64;33.08
10958;BME280;5531;42.570;23.676;2023-03-20T12:21:27;92084.09;;;17.63;30.26
10958;BME280;5531;42.570;23.676;2023-03-20T12:24:08;92069.91;;;17.69;32.33
10958;BME280;5531;42.570;23.676;2023-03-20T12:26:44;92076.19;;;17.80;31.91
10958;BME280;5531;42.570;23.676;2023-03-20T12:29:21;92072.47;;;17.81;30.78
10958;BME280;5531;42.570;23.676;2023-03-20T12:31:57;92065.44;;;17.87;32.08
10958;BME280;5531;42.570;23.676;2023-03-20T12:34:34;92053.19;;;17.98;31.94
10958;BME280;5531;42.570;23.676;2023-03-20T12:37:08;92047.13;;;18.02;30.90
10958;BME280;5531;42.570;23.676;2023-03-20T12:39:46;92054.69;;;18.10;30.80
10958;BME280;5531;42.570;23.676;2023-03-20T12:42:25;92048.50;;;18.22;31.76
10958;BME280;5531;42.570;23.676;2023-03-20T12:45:03;92051.66;;;18.36;31.19
10958;BME280;5531;42.570;23.676;2023-03-20T12:47:46;92044.25;;;18.38;30.34
10958;BME280;5531;42.570;23.676;2023-03-20T12:50:27;92038.25;;;18.64;33.26
10958;BME280;5531;42.570;23.676;2023-03-20T12:53:14;92052.06;;;18.83;30.27
10958;BME280;5531;42.570;23.676;2023-03-20T12:55:59;92047.69;;;18.77;30.64
10958;BME280;5531;42.570;23.676;2023-03-20T12:58:38;92037.00;;;18.72;30.13
10958;BME280;5531;42.570;23.676;2023-03-20T13:01:13;92033.31;;;18.73;32.57
10958;BME280;5531;42.570;23.676;2023-03-20T13:04:06;92029.34;;;18.93;30.94
10958;BME280;5531;42.570;23.676;2023-03-20T13:06:50;92030.53;;;19.02;31.71
10958;BME280;5531;42.570;23.676;2023-03-20T13:09:39;92027.09;;;19.07;30.35
10958;BME280;5531;42.570;23.676;2023-03-20T13:12:27;92028.00;;;19.12;29.57
10958;BME280;5531;42.570;23.676;2023-03-20T13:15:10;92021.06;;;19.11;30.34
10958;BME280;5531;42.570;23.676;2023-03-20T13:17:48;92022.28;;;19.26;30.70
10958;BME280;5531;42.570;23.676;2023-03-20T13:20:24;92014.06;;;19.27;29.69
10958;BME280;5531;42.570;23.676;2023-03-20T13:23:03;92018.75;;;19.42;31.61
10958;BME280;5531;42.570;23.676;2023-03-20T13:25:49;92006.88;;;19.50;30.31
10958;BME280;5531;42.570;23.676;2023-03-20T13:28:31;92015.84;;;19.44;29.61
10958;BME280;5531;42.570;23.676;2023-03-20T13:31:12;92012.63;;;19.41;30.51
10958;BME280;5531;42.570;23.676;2023-03-20T13:33:48;92005.94;;;19.39;31.25
10958;BME280;5531;42.570;23.676;2023-03-20T13:36:26;92001.22;;;19.41;32.41
10958;BME280;5531;42.570;23.676;2023-03-20T13:39:00;91996.78;;;19.52;30.39
10958;BME280;5531;42.570;23.676;2023-03-20T13:41:32;91994.06;;;19.47;30.82
10958;BME280;5531;42.570;23.676;2023-03-20T13:44:05;91984.50;;;19.46;30.18
10958;BME280;5531;42.570;23.676;2023-03-20T13:46:41;91985.75;;;19.38;30.16
10958;BME280;5531;42.570;23.676;2023-03-20T13:49:18;91980.25;;;19.45;30.35
10958;BME280;5531;42.570;23.676;2023-03-20T13:51:54;91976.38;;;19.57;30.90